sensor_id;sensor_type;location;lat;lon;timestamp;P1;durP1;ratioP1;P2;durP2;ratioP2
83495;SDS011;73431;40.794;43.836;2023-12-29T00:01:44;1.80;;;1.20;;
83495;SDS011;73431;40.794;43.836;2023-12-29T00:04:12;2.05;;;1.17;;
83495;SDS011;73431;40.794;43.836;2023-12-29T00:06:40;5.68;;;1.48;;
83495;SDS011;73431;40.794;43.836;2023-12-29T00:09:23;2.22;;;1.35;;
83495;SDS011;73431;40.794;43.836;2023-12-29T00:11:51;3.50;;;1.52;;
83495;SDS011;73431;40.794;43.836;2023-12-29T00:14:19;2.95;;;1.10;;
83495;SDS011;73431;40.794;43.836;2023-12-29T00:16:46;3.83;;;1.60;;
83495;SDS011;73431;40.794;43.836;2023-12-29T00:19:14;2.38;;;1.30;;
83495;SDS011;73431;40.794;43.836;2023-12-29T00:21:42;4.13;;;1.27;;
83495;SDS011;73431;40.794;43.836;2023-12-29T00:24:10;3.10;;;1.80;;
83495;SDS011;73431;40.794;43.836;2023-12-29T00:26:39;3.40;;;1.50;;
83495;SDS011;73431;40.794;43.836;2023-12-29T00:29:07;2.38;;;1.27;;
83495;SDS011;73431;40.794;43.836;2023-12-29T00:31:35;2.45;;;1.40;;
83495;SDS011;73431;40.794;43.836;2023-12-29T00:34:02;2.10;;;1.50;;
83495;SDS011;73431;40.794;43.836;2023-12-29T00:36:31;4.05;;;1.88;;
83495;SDS011;73431;40.794;43.836;2023-12-29T00:38:58;4.13;;;1.67;;
83495;SDS011;73431;40.794;43.836;2023-12-29T00:41:26;4.55;;;2.17;;
83495;SDS011;73431;40.794;43.836;2023-12-29T00:43:54;4.72;;;1.63;;
83495;SDS011;73431;40.794;43.836;2023-12-29T00:46:22;2.95;;;1.48;;
83495;SDS011;73431;40.794;43.836;2023-12-29T00:48:50;2.47;;;1.33;;
83495;SDS011;73431;40.794;43.836;2023-12-29T00:51:18;2.33;;;1.35;;
83495;SDS011;73431;40.794;43.836;2023-12-29T00:53:47;3.35;;;1.42;;
83495;SDS011;73431;40.794;43.836;2023-12-29T00:56:15;2.97;;;1.50;;
83495;SDS011;73431;40.794;43.836;2023-12-29T00:58:43;1.92;;;1.33;;
83495;SDS011;73431;40.794;43.836;2023-12-29T01:01:11;1.95;;;1.10;;
83495;SDS011;73431;40.794;43.836;2023-12-29T01:06:07;5.10;;;1.45;;
83495;SDS011;73431;40.794;43.836;2023-12-29T01:08:35;4.97;;;1.20;;
83495;SDS011;73431;40.794;43.836;2023-12-29T01:11:04;1.83;;;1.00;;
83495;SDS011;73431;40.794;43.836;2023-12-29T01:13:32;7.13;;;1.33;;
83495;SDS011;73431;40.794;43.836;2023-12-29T01:16:00;3.03;;;1.50;;
83495;SDS011;73431;40.794;43.836;2023-12-29T01:18:28;2.63;;;1.17;;
83495;SDS011;73431;40.794;43.836;2023-12-29T01:20:56;4.38;;;1.98;;
83495;SDS011;73431;40.794;43.836;2023-12-29T01:23:24;3.08;;;1.55;;
83495;SDS011;73431;40.794;43.836;2023-12-29T01:25:52;4.05;;;1.98;;
83495;SDS011;73431;40.794;43.836;2023-12-29T01:28:19;4.43;;;1.40;;
83495;SDS011;73431;40.794;43.836;2023-12-29T01:30:47;5.82;;;1.80;;
83495;SDS011;73431;40.794;43.836;2023-12-29T01:33:15;4.25;;;1.95;;
83495;SDS011;73431;40.794;43.836;2023-12-29T01:35:43;3.22;;;1.90;;
83495;SDS011;73431;40.794;43.836;2023-12-29T01:38:11;4.38;;;2.00;;
83495;SDS011;73431;40.794;43.836;2023-12-29T01:40:43;4.90;;;1.75;;
83495;SDS011;73431;40.794;43.836;2023-12-29T01:43:14;5.63;;;1.90;;
83495;SDS011;73431;40.794;43.836;2023-12-29T01:45:42;3.22;;;1.85;;
83495;SDS011;73431;40.794;43.836;2023-12-29T01:48:23;8.77;;;1.60;;
83495;SDS011;73431;40.794;43.836;2023-12-29T01:50:52;3.90;;;1.38;;
83495;SDS011;73431;40.794;43.836;2023-12-29T01:53:21;4.45;;;1.90;;
83495;SDS011;73431;40.794;43.836;2023-12-29T01:56:05;4.70;;;1.90;;
83495;SDS011;73431;40.794;43.836;2023-12-29T01:58:34;4.07;;;2.08;;
83495;SDS011;73431;40.794;43.836;2023-12-29T02:01:03;3.30;;;1.70;;
83495;SDS011;73431;40.794;43.836;2023-12-29T02:03:33;3.25;;;1.90;;
83495;SDS011;73431;40.794;43.836;2023-12-29T02:06:02;8.18;;;2.00;;
83495;SDS011;73431;40.794;43.836;2023-12-29T02:08:31;8.63;;;3.08;;
83495;SDS011;73431;40.794;43.836;2023-12-29T02:10:59;10.77;;;3.72;;
83495;SDS011;73431;40.794;43.836;2023-12-29T02:13:28;18.33;;;4.53;;
83495;SDS011;73431;40.794;43.836;2023-12-29T02:15:57;5.78;;;2.95;;
83495;SDS011;73431;40.794;43.836;2023-12-29T02:18:30;5.53;;;2.53;;
83495;SDS011;73431;40.794;43.836;2023-12-29T02:21:02;6.18;;;1.80;;
83495;SDS011;73431;40.794;43.836;2023-12-29T02:23:30;3.65;;;2.47;;
83495;SDS011;73431;40.794;43.836;2023-12-29T02:26:01;8.02;;;1.85;;
83495;SDS011;73431;40.794;43.836;2023-12-29T02:28:34;6.90;;;1.83;;
83495;SDS011;73431;40.794;43.836;2023-12-29T02:31:08;4.28;;;2.00;;
83495;SDS011;73431;40.794;43.836;2023-12-29T02:33:41;5.60;;;2.97;;
83495;SDS011;73431;40.794;43.836;2023-12-29T02:36:12;12.52;;;2.92;;
83495;SDS011;73431;40.794;43.836;2023-12-29T02:38:42;4.95;;;2.58;;
83495;SDS011;73431;40.794;43.836;2023-12-29T02:41:11;4.70;;;2.05;;
83495;SDS011;73431;40.794;43.836;2023-12-29T02:43:42;3.95;;;2.20;;
83495;SDS011;73431;40.794;43.836;2023-12-29T02:46:10;13.48;;;2.35;;
83495;SDS011;73431;40.794;43.836;2023-12-29T02:48:38;5.07;;;1.55;;
83495;SDS011;73431;40.794;43.836;2023-12-29T02:53:35;5.72;;;1.42;;
83495;SDS011;73431;40.794;43.836;2023-12-29T02:56:03;18.92;;;2.30;;
83495;SDS011;73431;40.794;43.836;2023-12-29T02:58:31;6.72;;;1.48;;
83495;SDS011;73431;40.794;43.836;2023-12-29T03:00:59;3.28;;;1.85;;
83495;SDS011;73431;40.794;43.836;2023-12-29T03:03:27;13.57;;;2.53;;
83495;SDS011;73431;40.794;43.836;2023-12-29T03:05:55;6.97;;;2.58;;
83495;SDS011;73431;40.794;43.836;2023-12-29T03:10:52;3.17;;;2.03;;
83495;SDS011;73431;40.794;43.836;2023-12-29T03:13:20;2.92;;;1.45;;
83495;SDS011;73431;40.794;43.836;2023-12-29T03:15:47;4.90;;;2.22;;
83495;SDS011;73431;40.794;43.836;2023-12-29T03:18:15;4.47;;;2.33;;
83495;SDS011;73431;40.794;43.836;2023-12-29T03:20:43;3.92;;;2.55;;
83495;SDS011;73431;40.794;43.836;2023-12-29T03:23:11;10.63;;;5.00;;
83495;SDS011;73431;40.794;43.836;2023-12-29T03:25:39;8.57;;;3.22;;
83495;SDS011;73431;40.794;43.836;2023-12-29T03:28:06;6.63;;;3.08;;
83495;SDS011;73431;40.794;43.836;2023-12-29T03:30:35;6.95;;;2.88;;
83495;SDS011;73431;40.794;43.836;2023-12-29T03:33:04;5.80;;;3.22;;
83495;SDS011;73431;40.794;43.836;2023-12-29T03:35:33;13.95;;;4.05;;
83495;SDS011;73431;40.794;43.836;2023-12-29T03:38:01;7.13;;;4.47;;
83495;SDS011;73431;40.794;43.836;2023-12-29T03:40:30;11.68;;;5.47;;
83495;SDS011;73431;40.794;43.836;2023-12-29T03:42:58;9.25;;;4.05;;
83495;SDS011;73431;40.794;43.836;2023-12-29T03:45:26;11.85;;;6.43;;
83495;SDS011;73431;40.794;43.836;2023-12-29T03:47:53;18.13;;;5.45;;
83495;SDS011;73431;40.794;43.836;2023-12-29T03:50:22;11.38;;;4.35;;
83495;SDS011;73431;40.794;43.836;2023-12-29T03:52:49;7.82;;;3.30;;
83495;SDS011;73431;40.794;43.836;2023-12-29T03:55:17;11.65;;;4.90;;
83495;SDS011;73431;40.794;43.836;2023-12-29T03:57:45;9.65;;;4.13;;
83495;SDS011;73431;40.794;43.836;2023-12-29T04:00:14;6.47;;;3.25;;
83495;SDS011;73431;40.794;43.836;2023-12-29T04:02:42;11.27;;;4.43;;
83495;SDS011;73431;40.794;43.836;2023-12-29T04:05:11;12.98;;;4.90;;
83495;SDS011;73431;40.794;43.836;2023-12-29T04:07:39;10.25;;;4.50;;
83495;SDS011;73431;40.794;43.836;2023-12-29T04:10:08;8.98;;;4.78;;
83495;SDS011;73431;40.794;43.836;2023-12-29T04:12:37;9.68;;;5.45;;
83495;SDS011;73431;40.794;43.836;2023-12-29T04:15:05;18.55;;;5.65;;
83495;SDS011;73431;40.794;43.836;2023-12-29T04:17:33;12.05;;;4.40;;
83495;SDS011;73431;40.794;43.836;2023-12-29T04:20:01;31.42;;;6.55;;
83495;SDS011;73431;40.794;43.836;2023-12-29T04:22:29;35.17;;;4.75;;
83495;SDS011;73431;40.794;43.836;2023-12-29T04:24:57;20.80;;;4.93;;
83495;SDS011;73431;40.794;43.836;2023-12-29T04:27:25;9.95;;;5.38;;
83495;SDS011;73431;40.794;43.836;2023-12-29T04:29:52;14.52;;;6.13;;
83495;SDS011;73431;40.794;43.836;2023-12-29T04:32:22;21.75;;;6.00;;
83495;SDS011;73431;40.794;43.836;2023-12-29T04:34:50;23.77;;;9.32;;
83495;SDS011;73431;40.794;43.836;2023-12-29T04:37:18;27.00;;;8.93;;
83495;SDS011;73431;40.794;43.836;2023-12-29T04:39:46;16.45;;;4.95;;
83495;SDS011;73431;40.794;43.836;2023-12-29T04:42:15;22.90;;;8.63;;
83495;SDS011;73431;40.794;43.836;2023-12-29T04:44:45;33.30;;;10.50;;
83495;SDS011;73431;40.794;43.836;2023-12-29T04:47:13;43.50;;;13.15;;
83495;SDS011;73431;40.794;43.836;2023-12-29T04:49:41;22.58;;;9.48;;
83495;SDS011;73431;40.794;43.836;2023-12-29T04:52:08;28.10;;;9.20;;
83495;SDS011;73431;40.794;43.836;2023-12-29T04:54:37;22.95;;;9.57;;
83495;SDS011;73431;40.794;43.836;2023-12-29T04:57:04;17.30;;;8.32;;
83495;SDS011;73431;40.794;43.836;2023-12-29T04:59:32;33.15;;;7.47;;
83495;SDS011;73431;40.794;43.836;2023-12-29T05:02:00;29.88;;;7.95;;
83495;SDS011;73431;40.794;43.836;2023-12-29T05:04:28;32.30;;;7.57;;
83495;SDS011;73431;40.794;43.836;2023-12-29T05:06:56;28.15;;;9.00;;
83495;SDS011;73431;40.794;43.836;2023-12-29T05:09:24;33.40;;;9.55;;
83495;SDS011;73431;40.794;43.836;2023-12-29T05:11:52;32.92;;;9.05;;
83495;SDS011;73431;40.794;43.836;2023-12-29T05:14:20;29.88;;;11.38;;
83495;SDS011;73431;40.794;43.836;2023-12-29T05:16:47;37.97;;;10.88;;
83495;SDS011;73431;40.794;43.836;2023-12-29T05:19:15;37.22;;;10.07;;
83495;SDS011;73431;40.794;43.836;2023-12-29T05:21:43;34.75;;;11.40;;
83495;SDS011;73431;40.794;43.836;2023-12-29T05:24:11;32.83;;;11.15;;
83495;SDS011;73431;40.794;43.836;2023-12-29T05:26:39;35.05;;;11.30;;
83495;SDS011;73431;40.794;43.836;2023-12-29T05:29:06;29.65;;;10.93;;
83495;SDS011;73431;40.794;43.836;2023-12-29T05:31:34;34.25;;;11.95;;
83495;SDS011;73431;40.794;43.836;2023-12-29T05:34:03;39.03;;;11.60;;
83495;SDS011;73431;40.794;43.836;2023-12-29T05:39:02;35.58;;;11.77;;
83495;SDS011;73431;40.794;43.836;2023-12-29T05:41:30;37.88;;;13.45;;
83495;SDS011;73431;40.794;43.836;2023-12-29T05:43:58;40.15;;;15.38;;
83495;SDS011;73431;40.794;43.836;2023-12-29T05:46:28;48.60;;;18.60;;
83495;SDS011;73431;40.794;43.836;2023-12-29T05:48:56;37.13;;;17.75;;
83495;SDS011;73431;40.794;43.836;2023-12-29T05:51:24;37.03;;;16.77;;
83495;SDS011;73431;40.794;43.836;2023-12-29T05:53:52;44.83;;;19.02;;
83495;SDS011;73431;40.794;43.836;2023-12-29T05:56:20;43.92;;;16.92;;
83495;SDS011;73431;40.794;43.836;2023-12-29T05:58:49;31.17;;;12.85;;
83495;SDS011;73431;40.794;43.836;2023-12-29T06:01:18;27.05;;;10.88;;
83495;SDS011;73431;40.794;43.836;2023-12-29T06:03:46;20.88;;;11.55;;
83495;SDS011;73431;40.794;43.836;2023-12-29T06:06:14;22.20;;;8.80;;
83495;SDS011;73431;40.794;43.836;2023-12-29T06:08:42;24.52;;;7.85;;
83495;SDS011;73431;40.794;43.836;2023-12-29T06:11:14;17.20;;;7.45;;
83495;SDS011;73431;40.794;43.836;2023-12-29T06:13:43;22.65;;;9.50;;
83495;SDS011;73431;40.794;43.836;2023-12-29T06:16:16;16.75;;;8.25;;
83495;SDS011;73431;40.794;43.836;2023-12-29T06:18:46;29.35;;;9.38;;
83495;SDS011;73431;40.794;43.836;2023-12-29T06:21:15;19.85;;;7.70;;
83495;SDS011;73431;40.794;43.836;2023-12-29T06:23:44;29.88;;;8.73;;
83495;SDS011;73431;40.794;43.836;2023-12-29T06:26:18;23.35;;;6.25;;
83495;SDS011;73431;40.794;43.836;2023-12-29T06:28:47;12.32;;;6.53;;
83495;SDS011;73431;40.794;43.836;2023-12-29T06:33:44;14.27;;;5.35;;
83495;SDS011;73431;40.794;43.836;2023-12-29T06:38:41;11.02;;;4.47;;
83495;SDS011;73431;40.794;43.836;2023-12-29T06:41:09;12.07;;;4.45;;
83495;SDS011;73431;40.794;43.836;2023-12-29T06:43:38;6.53;;;3.03;;
83495;SDS011;73431;40.794;43.836;2023-12-29T06:46:06;9.30;;;3.30;;
83495;SDS011;73431;40.794;43.836;2023-12-29T06:48:36;8.80;;;2.58;;
83495;SDS011;73431;40.794;43.836;2023-12-29T06:51:04;13.27;;;3.05;;
83495;SDS011;73431;40.794;43.836;2023-12-29T06:53:32;9.02;;;3.90;;
83495;SDS011;73431;40.794;43.836;2023-12-29T06:56:00;7.63;;;3.35;;
83495;SDS011;73431;40.794;43.836;2023-12-29T06:58:28;10.18;;;3.28;;
83495;SDS011;73431;40.794;43.836;2023-12-29T07:00:56;14.63;;;3.47;;
83495;SDS011;73431;40.794;43.836;2023-12-29T07:03:23;13.77;;;3.55;;
83495;SDS011;73431;40.794;43.836;2023-12-29T07:05:52;10.18;;;3.80;;
83495;SDS011;73431;40.794;43.836;2023-12-29T07:08:19;11.65;;;3.70;;
83495;SDS011;73431;40.794;43.836;2023-12-29T07:10:47;22.02;;;4.53;;
83495;SDS011;73431;40.794;43.836;2023-12-29T07:13:17;9.18;;;3.05;;
83495;SDS011;73431;40.794;43.836;2023-12-29T07:15:47;12.50;;;3.70;;
83495;SDS011;73431;40.794;43.836;2023-12-29T07:18:18;14.13;;;3.78;;
83495;SDS011;73431;40.794;43.836;2023-12-29T07:20:46;10.35;;;4.60;;
83495;SDS011;73431;40.794;43.836;2023-12-29T07:23:14;17.58;;;6.90;;
83495;SDS011;73431;40.794;43.836;2023-12-29T07:25:42;14.48;;;6.13;;
83495;SDS011;73431;40.794;43.836;2023-12-29T07:28:09;6.90;;;3.33;;
83495;SDS011;73431;40.794;43.836;2023-12-29T07:30:37;14.52;;;3.92;;
83495;SDS011;73431;40.794;43.836;2023-12-29T07:33:06;16.58;;;5.00;;
83495;SDS011;73431;40.794;43.836;2023-12-29T07:38:02;10.02;;;4.70;;
83495;SDS011;73431;40.794;43.836;2023-12-29T07:42:57;9.30;;;4.43;;
83495;SDS011;73431;40.794;43.836;2023-12-29T07:45:25;9.50;;;5.50;;
83495;SDS011;73431;40.794;43.836;2023-12-29T07:47:52;8.23;;;3.78;;
83495;SDS011;73431;40.794;43.836;2023-12-29T07:50:20;11.43;;;6.18;;
83495;SDS011;73431;40.794;43.836;2023-12-29T07:52:48;9.68;;;5.50;;
83495;SDS011;73431;40.794;43.836;2023-12-29T07:55:16;18.00;;;6.32;;
83495;SDS011;73431;40.794;43.836;2023-12-29T07:57:44;22.73;;;9.48;;
83495;SDS011;73431;40.794;43.836;2023-12-29T08:00:14;18.75;;;8.65;;
83495;SDS011;73431;40.794;43.836;2023-12-29T08:02:43;15.57;;;8.50;;
83495;SDS011;73431;40.794;43.836;2023-12-29T08:05:11;16.27;;;8.00;;
83495;SDS011;73431;40.794;43.836;2023-12-29T08:07:38;17.33;;;8.38;;
83495;SDS011;73431;40.794;43.836;2023-12-29T08:10:06;11.75;;;7.10;;
83495;SDS011;73431;40.794;43.836;2023-12-29T08:12:35;15.32;;;8.20;;
83495;SDS011;73431;40.794;43.836;2023-12-29T08:15:03;13.85;;;7.05;;
83495;SDS011;73431;40.794;43.836;2023-12-29T08:17:32;12.35;;;7.07;;
83495;SDS011;73431;40.794;43.836;2023-12-29T08:20:00;10.63;;;6.32;;
83495;SDS011;73431;40.794;43.836;2023-12-29T08:22:29;18.65;;;7.43;;
83495;SDS011;73431;40.794;43.836;2023-12-29T08:24:58;21.10;;;8.70;;
83495;SDS011;73431;40.794;43.836;2023-12-29T08:27:27;14.73;;;6.90;;
83495;SDS011;73431;40.794;43.836;2023-12-29T08:29:54;12.55;;;5.55;;
83495;SDS011;73431;40.794;43.836;2023-12-29T08:32:22;13.90;;;5.47;;
83495;SDS011;73431;40.794;43.836;2023-12-29T08:34:50;14.73;;;6.25;;
83495;SDS011;73431;40.794;43.836;2023-12-29T08:37:18;8.85;;;5.28;;
83495;SDS011;73431;40.794;43.836;2023-12-29T08:39:47;10.52;;;4.90;;
83495;SDS011;73431;40.794;43.836;2023-12-29T08:42:16;7.35;;;4.60;;
83495;SDS011;73431;40.794;43.836;2023-12-29T08:44:44;10.13;;;5.00;;
83495;SDS011;73431;40.794;43.836;2023-12-29T08:47:12;10.93;;;5.20;;
83495;SDS011;73431;40.794;43.836;2023-12-29T08:49:40;11.45;;;5.35;;
83495;SDS011;73431;40.794;43.836;2023-12-29T08:52:09;9.98;;;4.75;;
83495;SDS011;73431;40.794;43.836;2023-12-29T08:54:37;10.27;;;4.63;;
83495;SDS011;73431;40.794;43.836;2023-12-29T08:59:33;7.90;;;3.05;;
83495;SDS011;73431;40.794;43.836;2023-12-29T09:02:01;9.10;;;3.33;;
83495;SDS011;73431;40.794;43.836;2023-12-29T09:04:30;10.00;;;5.00;;
83495;SDS011;73431;40.794;43.836;2023-12-29T09:09:26;18.33;;;5.70;;
83495;SDS011;73431;40.794;43.836;2023-12-29T09:11:54;10.18;;;4.03;;
83495;SDS011;73431;40.794;43.836;2023-12-29T09:14:22;10.20;;;4.30;;
83495;SDS011;73431;40.794;43.836;2023-12-29T09:16:50;5.28;;;3.38;;
83495;SDS011;73431;40.794;43.836;2023-12-29T09:19:18;10.98;;;3.85;;
83495;SDS011;73431;40.794;43.836;2023-12-29T09:22:01;7.30;;;2.50;;
83495;SDS011;73431;40.794;43.836;2023-12-29T09:24:30;5.25;;;2.97;;
83495;SDS011;73431;40.794;43.836;2023-12-29T09:26:59;6.10;;;2.92;;
83495;SDS011;73431;40.794;43.836;2023-12-29T09:29:27;12.90;;;2.90;;
83495;SDS011;73431;40.794;43.836;2023-12-29T09:31:55;6.22;;;3.63;;
83495;SDS011;73431;40.794;43.836;2023-12-29T09:36:51;36.78;;;4.28;;
83495;SDS011;73431;40.794;43.836;2023-12-29T09:39:19;6.80;;;2.80;;
83495;SDS011;73431;40.794;43.836;2023-12-29T09:41:46;4.88;;;2.20;;
83495;SDS011;73431;40.794;43.836;2023-12-29T09:44:19;3.60;;;1.73;;
83495;SDS011;73431;40.794;43.836;2023-12-29T09:46:53;7.00;;;3.50;;
83495;SDS011;73431;40.794;43.836;2023-12-29T09:49:22;3.42;;;2.20;;
83495;SDS011;73431;40.794;43.836;2023-12-29T09:51:51;3.53;;;2.10;;
83495;SDS011;73431;40.794;43.836;2023-12-29T09:56:46;13.25;;;2.67;;
83495;SDS011;73431;40.794;43.836;2023-12-29T09:59:16;3.92;;;2.25;;
83495;SDS011;73431;40.794;43.836;2023-12-29T10:01:45;8.23;;;2.35;;
83495;SDS011;73431;40.794;43.836;2023-12-29T10:04:15;3.38;;;2.40;;
83495;SDS011;73431;40.794;43.836;2023-12-29T10:09:16;8.07;;;2.63;;
83495;SDS011;73431;40.794;43.836;2023-12-29T10:11:48;4.00;;;2.10;;
83495;SDS011;73431;40.794;43.836;2023-12-29T10:14:30;13.05;;;2.75;;
83495;SDS011;73431;40.794;43.836;2023-12-29T10:17:32;5.93;;;2.08;;
83495;SDS011;73431;40.794;43.836;2023-12-29T10:23:20;4.65;;;2.05;;
83495;SDS011;73431;40.794;43.836;2023-12-29T10:25:55;3.03;;;1.65;;
83495;SDS011;73431;40.794;43.836;2023-12-29T10:28:24;8.30;;;2.13;;
83495;SDS011;73431;40.794;43.836;2023-12-29T10:33:20;6.85;;;1.42;;
83495;SDS011;73431;40.794;43.836;2023-12-29T10:35:58;3.10;;;1.75;;
83495;SDS011;73431;40.794;43.836;2023-12-29T10:38:31;3.13;;;1.77;;
83495;SDS011;73431;40.794;43.836;2023-12-29T10:41:15;4.68;;;1.48;;
83495;SDS011;73431;40.794;43.836;2023-12-29T10:43:45;2.35;;;1.58;;
83495;SDS011;73431;40.794;43.836;2023-12-29T10:46:22;21.65;;;3.85;;
83495;SDS011;73431;40.794;43.836;2023-12-29T10:48:52;5.63;;;1.90;;
83495;SDS011;73431;40.794;43.836;2023-12-29T10:51:26;3.65;;;1.63;;
83495;SDS011;73431;40.794;43.836;2023-12-29T10:53:56;5.80;;;2.25;;
83495;SDS011;73431;40.794;43.836;2023-12-29T10:56:24;4.95;;;2.25;;
83495;SDS011;73431;40.794;43.836;2023-12-29T10:59:00;2.33;;;1.27;;
83495;SDS011;73431;40.794;43.836;2023-12-29T11:01:31;2.05;;;1.35;;
83495;SDS011;73431;40.794;43.836;2023-12-29T11:04:02;4.13;;;1.45;;
83495;SDS011;73431;40.794;43.836;2023-12-29T11:06:42;4.47;;;1.30;;
83495;SDS011;73431;40.794;43.836;2023-12-29T11:09:19;1.63;;;0.90;;
83495;SDS011;73431;40.794;43.836;2023-12-29T11:11:59;4.13;;;0.90;;
83495;SDS011;73431;40.794;43.836;2023-12-29T11:14:28;2.40;;;1.15;;
83495;SDS011;73431;40.794;43.836;2023-12-29T11:16:57;2.28;;;1.02;;
83495;SDS011;73431;40.794;43.836;2023-12-29T11:19:28;2.17;;;1.02;;
83495;SDS011;73431;40.794;43.836;2023-12-29T11:21:56;1.83;;;1.02;;
83495;SDS011;73431;40.794;43.836;2023-12-29T11:24:26;6.70;;;1.60;;
83495;SDS011;73431;40.794;43.836;2023-12-29T11:27:05;3.13;;;1.17;;
83495;SDS011;73431;40.794;43.836;2023-12-29T11:29:35;4.00;;;1.88;;
83495;SDS011;73431;40.794;43.836;2023-12-29T11:32:06;3.60;;;1.58;;
83495;SDS011;73431;40.794;43.836;2023-12-29T11:34:41;2.78;;;1.60;;
83495;SDS011;73431;40.794;43.836;2023-12-29T11:40:20;2.97;;;1.70;;
83495;SDS011;73431;40.794;43.836;2023-12-29T11:42:57;6.85;;;2.58;;
83495;SDS011;73431;40.794;43.836;2023-12-29T11:45:30;6.85;;;2.55;;
83495;SDS011;73431;40.794;43.836;2023-12-29T11:48:03;3.80;;;1.63;;
83495;SDS011;73431;40.794;43.836;2023-12-29T11:50:32;4.57;;;2.10;;
83495;SDS011;73431;40.794;43.836;2023-12-29T11:53:06;4.43;;;2.25;;
83495;SDS011;73431;40.794;43.836;2023-12-29T11:55:36;3.70;;;1.65;;
83495;SDS011;73431;40.794;43.836;2023-12-29T11:58:27;3.95;;;1.73;;
83495;SDS011;73431;40.794;43.836;2023-12-29T12:00:56;4.38;;;2.10;;
83495;SDS011;73431;40.794;43.836;2023-12-29T12:03:25;4.13;;;1.90;;
83495;SDS011;73431;40.794;43.836;2023-12-29T12:05:55;2.70;;;1.27;;
83495;SDS011;73431;40.794;43.836;2023-12-29T12:08:29;2.85;;;1.40;;
83495;SDS011;73431;40.794;43.836;2023-12-29T12:13:56;2.42;;;1.33;;
83495;SDS011;73431;40.794;43.836;2023-12-29T12:19:15;2.83;;;1.48;;
83495;SDS011;73431;40.794;43.836;2023-12-29T12:21:45;3.70;;;1.38;;
83495;SDS011;73431;40.794;43.836;2023-12-29T12:24:20;3.83;;;1.42;;
83495;SDS011;73431;40.794;43.836;2023-12-29T12:26:48;9.23;;;1.92;;
83495;SDS011;73431;40.794;43.836;2023-12-29T12:29:17;5.13;;;2.03;;
83495;SDS011;73431;40.794;43.836;2023-12-29T12:34:25;7.85;;;2.17;;
83495;SDS011;73431;40.794;43.836;2023-12-29T12:36:53;6.93;;;2.22;;
83495;SDS011;73431;40.794;43.836;2023-12-29T12:39:24;4.90;;;1.63;;
83495;SDS011;73431;40.794;43.836;2023-12-29T12:41:52;5.50;;;1.40;;
83495;SDS011;73431;40.794;43.836;2023-12-29T12:44:19;4.82;;;2.00;;
83495;SDS011;73431;40.794;43.836;2023-12-29T12:49:15;7.22;;;1.30;;
83495;SDS011;73431;40.794;43.836;2023-12-29T12:51:44;2.70;;;1.00;;
83495;SDS011;73431;40.794;43.836;2023-12-29T12:54:15;3.55;;;0.90;;
83495;SDS011;73431;40.794;43.836;2023-12-29T12:56:46;4.18;;;1.80;;
83495;SDS011;73431;40.794;43.836;2023-12-29T12:59:15;4.03;;;2.15;;
83495;SDS011;73431;40.794;43.836;2023-12-29T13:01:43;3.50;;;1.52;;
83495;SDS011;73431;40.794;43.836;2023-12-29T13:04:12;6.50;;;1.90;;
83495;SDS011;73431;40.794;43.836;2023-12-29T13:06:41;4.88;;;1.45;;
83495;SDS011;73431;40.794;43.836;2023-12-29T13:09:17;4.35;;;1.38;;
83495;SDS011;73431;40.794;43.836;2023-12-29T13:11:47;5.32;;;1.73;;
83495;SDS011;73431;40.794;43.836;2023-12-29T13:14:21;7.00;;;2.28;;
83495;SDS011;73431;40.794;43.836;2023-12-29T13:16:50;3.78;;;2.10;;
83495;SDS011;73431;40.794;43.836;2023-12-29T13:19:20;5.35;;;2.50;;
83495;SDS011;73431;40.794;43.836;2023-12-29T13:21:51;5.22;;;2.22;;
83495;SDS011;73431;40.794;43.836;2023-12-29T13:24:24;7.55;;;2.40;;
83495;SDS011;73431;40.794;43.836;2023-12-29T13:26:57;10.60;;;5.00;;
83495;SDS011;73431;40.794;43.836;2023-12-29T13:29:29;8.50;;;3.90;;
83495;SDS011;73431;40.794;43.836;2023-12-29T13:32:19;8.73;;;3.80;;
83495;SDS011;73431;40.794;43.836;2023-12-29T13:34:50;17.23;;;6.53;;
83495;SDS011;73431;40.794;43.836;2023-12-29T13:37:25;18.55;;;8.43;;
83495;SDS011;73431;40.794;43.836;2023-12-29T13:40:03;16.67;;;6.43;;
83495;SDS011;73431;40.794;43.836;2023-12-29T13:42:56;13.23;;;5.57;;
83495;SDS011;73431;40.794;43.836;2023-12-29T13:45:29;30.15;;;9.77;;
83495;SDS011;73431;40.794;43.836;2023-12-29T13:47:58;26.52;;;8.23;;
83495;SDS011;73431;40.794;43.836;2023-12-29T13:50:28;13.82;;;5.28;;
83495;SDS011;73431;40.794;43.836;2023-12-29T13:52:56;16.98;;;7.10;;
83495;SDS011;73431;40.794;43.836;2023-12-29T13:55:24;19.05;;;6.60;;
83495;SDS011;73431;40.794;43.836;2023-12-29T13:57:52;19.13;;;7.53;;
83495;SDS011;73431;40.794;43.836;2023-12-29T14:00:22;35.47;;;12.18;;
83495;SDS011;73431;40.794;43.836;2023-12-29T14:05:23;61.45;;;19.15;;
83495;SDS011;73431;40.794;43.836;2023-12-29T14:07:53;47.15;;;15.75;;
83495;SDS011;73431;40.794;43.836;2023-12-29T14:10:30;71.28;;;21.23;;
83495;SDS011;73431;40.794;43.836;2023-12-29T14:13:08;196.38;;;86.68;;
83495;SDS011;73431;40.794;43.836;2023-12-29T14:15:41;82.32;;;33.85;;
83495;SDS011;73431;40.794;43.836;2023-12-29T14:26:28;25.35;;;11.00;;
83495;SDS011;73431;40.794;43.836;2023-12-29T14:29:03;20.75;;;12.68;;
83495;SDS011;73431;40.794;43.836;2023-12-29T14:31:38;25.88;;;11.77;;
83495;SDS011;73431;40.794;43.836;2023-12-29T14:34:08;22.10;;;13.25;;
83495;SDS011;73431;40.794;43.836;2023-12-29T14:36:37;30.25;;;15.27;;
83495;SDS011;73431;40.794;43.836;2023-12-29T14:39:09;21.60;;;10.68;;
83495;SDS011;73431;40.794;43.836;2023-12-29T14:41:38;23.13;;;9.82;;
83495;SDS011;73431;40.794;43.836;2023-12-29T14:44:06;28.05;;;14.55;;
83495;SDS011;73431;40.794;43.836;2023-12-29T14:46:35;31.10;;;15.85;;
83495;SDS011;73431;40.794;43.836;2023-12-29T14:49:04;36.20;;;15.88;;
83495;SDS011;73431;40.794;43.836;2023-12-29T14:51:33;22.25;;;11.30;;
83495;SDS011;73431;40.794;43.836;2023-12-29T14:54:01;38.17;;;18.40;;
83495;SDS011;73431;40.794;43.836;2023-12-29T14:56:31;50.97;;;22.73;;
83495;SDS011;73431;40.794;43.836;2023-12-29T14:59:01;52.95;;;23.60;;
83495;SDS011;73431;40.794;43.836;2023-12-29T15:01:32;98.93;;;35.78;;
83495;SDS011;73431;40.794;43.836;2023-12-29T15:06:29;129.40;;;36.38;;
83495;SDS011;73431;40.794;43.836;2023-12-29T15:08:57;128.20;;;34.30;;
83495;SDS011;73431;40.794;43.836;2023-12-29T15:11:25;81.47;;;33.03;;
83495;SDS011;73431;40.794;43.836;2023-12-29T15:13:53;81.68;;;30.40;;
83495;SDS011;73431;40.794;43.836;2023-12-29T15:16:21;79.60;;;32.92;;
83495;SDS011;73431;40.794;43.836;2023-12-29T15:18:49;76.93;;;33.17;;
83495;SDS011;73431;40.794;43.836;2023-12-29T15:21:17;92.82;;;38.28;;
83495;SDS011;73431;40.794;43.836;2023-12-29T15:23:46;135.52;;;44.38;;
83495;SDS011;73431;40.794;43.836;2023-12-29T15:26:14;121.38;;;48.10;;
83495;SDS011;73431;40.794;43.836;2023-12-29T15:28:44;129.07;;;39.70;;
83495;SDS011;73431;40.794;43.836;2023-12-29T15:31:12;109.45;;;38.42;;
83495;SDS011;73431;40.794;43.836;2023-12-29T15:33:41;123.32;;;40.28;;
83495;SDS011;73431;40.794;43.836;2023-12-29T15:36:12;110.45;;;39.70;;
83495;SDS011;73431;40.794;43.836;2023-12-29T15:38:48;101.78;;;36.90;;
83495;SDS011;73431;40.794;43.836;2023-12-29T15:41:19;108.07;;;39.88;;
83495;SDS011;73431;40.794;43.836;2023-12-29T15:43:47;139.18;;;48.53;;
83495;SDS011;73431;40.794;43.836;2023-12-29T15:46:17;199.60;;;80.40;;